Time;durP1;ratioP1;P1;durP2;ratioP2;P2;SDS_P1;SDS_P2;PMS_P1;PMS_P2;Temp;Humidity;BMP_temperature;BMP_pressure;BME280_temperature;BME280_humidity;BME280_pressure;Samples;Min_cycle;Max_cycle;Signal;HPM_P1;HPM_P2
2023/07/11 00:02:19;;;;;;;8.38;5.57;;;;;;;24.83;51.74;99232.75;4376018;32;33721;-90
2023/07/11 00:04:46;;;;;;;10.68;5.30;;;;;;;24.92;51.46;99237.63;4383496;32;34099;-92
2023/07/11 00:07:14;;;;;;;10.75;5.72;;;;;;;24.81;51.66;99229.28;4375694;32;33930;-85
2023/07/11 00:09:46;;;;;;;9.40;6.15;;;;;;;24.73;51.60;99227.81;4375438;32;33569;-85
2023/07/11 00:12:15;;;;;;;12.57;6.50;;;;;;;24.48;52.69;99225.41;4380029;32;34670;-91
2023/07/11 00:14:43;;;;;;;9.82;5.75;;;;;;;24.39;52.87;99225.78;4372649;32;32896;-91
2023/07/11 00:17:11;;;;;;;9.45;5.95;;;;;;;24.55;52.61;99226.00;4377281;32;33215;-85
2023/07/11 00:19:50;;;;;;;8.52;5.03;;;;;;;24.59;52.48;99217.00;4375745;32;33592;-85
2023/07/11 00:22:18;;;;;;;10.80;5.70;;;;;;;24.59;52.50;99219.62;4362125;32;33562;-90
2023/07/11 00:24:47;;;;;;;9.57;6.07;;;;;;;24.58;52.50;99228.50;4362244;32;34836;-90
2023/07/11 00:27:17;;;;;;;11.35;5.55;;;;;;;24.46;52.64;99224.59;4361006;32;34588;-92
2023/07/11 00:29:45;;;;;;;8.40;5.68;;;;;;;24.35;53.01;99229.47;4371682;32;32990;-89
2023/07/11 00:32:13;;;;;;;9.50;5.75;;;;;;;24.39;52.86;99216.97;4375412;32;34039;-92
2023/07/11 00:34:42;;;;;;;8.80;5.65;;;;;;;24.44;53.08;99215.00;4373739;32;34097;-91
2023/07/11 00:37:10;;;;;;;9.02;6.40;;;;;;;24.25;53.49;99209.59;4374746;32;34685;-85
2023/07/11 00:39:38;;;;;;;10.05;5.93;;;;;;;24.39;53.40;99209.03;4375489;32;34169;-92
2023/07/11 00:42:07;;;;;;;10.02;5.82;;;;;;;24.25;53.63;99204.31;4360502;32;34840;-91
2023/07/11 00:44:52;;;;;;;10.40;5.90;;;;;;;24.29;53.77;99200.59;4353523;32;34989;-89
2023/07/11 00:47:21;;;;;;;12.52;6.15;;;;;;;24.18;54.24;99197.53;4369402;32;33914;-91
2023/07/11 00:49:52;;;;;;;12.37;6.18;;;;;;;24.17;54.05;99212.56;4371963;32;31754;-90
2023/07/11 00:52:21;;;;;;;13.35;6.32;;;;;;;24.11;54.35;99201.37;4358550;32;33994;-90
2023/07/11 00:54:51;;;;;;;9.45;6.37;;;;;;;24.10;54.47;99203.16;4361628;32;35143;-90
2023/07/11 00:57:18;;;;;;;10.88;6.15;;;;;;;24.04;54.57;99198.09;4360310;32;34112;-87
2023/07/11 00:59:48;;;;;;;10.07;5.85;;;;;;;24.02;54.92;99192.87;4373339;32;33476;-89
2023/07/11 01:02:20;;;;;;;10.73;6.05;;;;;;;23.79;55.31;99196.47;4374253;32;33882;-88
2023/07/11 01:04:48;;;;;;;10.35;6.60;;;;;;;23.88;55.33;99202.31;4372744;32;34904;-93
2023/07/11 01:07:20;;;;;;;10.07;6.05;;;;;;;23.91;55.35;99199.56;4373120;32;33568;-90
2023/07/11 01:09:48;;;;;;;11.63;6.22;;;;;;;23.81;55.94;99199.06;4361044;32;33152;-86
2023/07/11 01:12:16;;;;;;;9.70;6.45;;;;;;;23.75;56.02;99200.19;4376001;32;33690;-86
2023/07/11 01:14:47;;;;;;;11.25;6.40;;;;;;;23.64;56.63;99202.38;4375571;32;34752;-89
2023/07/11 01:17:34;;;;;;;9.00;5.80;;;;;;;23.59;56.99;99193.72;4367936;32;33911;-87
2023/07/11 01:20:05;;;;;;;11.32;5.82;;;;;;;23.68;56.57;99196.06;4355549;32;33242;-89
2023/07/11 01:22:35;;;;;;;9.50;6.07;;;;;;;23.57;56.26;99200.03;4375707;32;34798;-91
2023/07/11 01:25:11;;;;;;;12.27;5.43;;;;;;;23.62;56.05;99185.66;4376993;32;35117;-92
2023/07/11 01:27:41;;;;;;;10.50;6.12;;;;;;;23.97;55.56;99193.97;4373604;32;33868;-90
2023/07/11 01:30:11;;;;;;;8.52;5.45;;;;;;;23.95;55.57;99195.84;4389531;32;33780;-86
2023/07/11 01:32:38;;;;;;;8.75;5.97;;;;;;;23.84;55.48;99187.50;4389798;32;34507;-88
2023/07/11 01:35:07;;;;;;;10.95;5.72;;;;;;;23.84;55.38;99195.44;4390965;32;34327;-87
2023/07/11 01:37:35;;;;;;;11.40;5.35;;;;;;;23.85;54.94;99181.25;4399878;32;34239;-87
2023/07/11 01:40:05;;;;;;;12.02;5.87;;;;;;;23.96;55.26;99184.31;4389439;32;32616;-87
2023/07/11 01:42:34;;;;;;;10.82;6.05;;;;;;;23.90;55.56;99177.47;4400365;32;34666;-87
2023/07/11 01:45:01;;;;;;;9.85;5.72;;;;;;;23.64;54.86;99170.59;4389346;32;33950;-87
2023/07/11 01:47:30;;;;;;;8.65;5.57;;;;;;;23.88;54.59;99173.19;4386319;32;34817;-87
2023/07/11 01:49:58;;;;;;;10.57;5.82;;;;;;;24.07;55.15;99168.84;4389014;32;33650;-88
2023/07/11 01:52:25;;;;;;;8.57;5.10;;;;;;;24.20;54.93;99174.47;4398215;32;34588;-90
2023/07/11 01:54:53;;;;;;;9.82;5.43;;;;;;;24.16;53.82;99168.44;4389269;32;34592;-91
2023/07/11 01:57:20;;;;;;;8.68;5.35;;;;;;;24.28;54.48;99162.66;4390339;32;34674;-87
2023/07/11 01:59:49;;;;;;;10.75;5.53;;;;;;;24.26;53.70;99169.78;4388153;32;33589;-90
2023/07/11 02:02:17;;;;;;;10.15;5.70;;;;;;;24.15;54.38;99165.88;4400549;32;34182;-92
2023/07/11 02:04:45;;;;;;;10.82;5.53;;;;;;;24.23;54.39;99164.59;4390311;32;34024;-90
2023/07/11 02:07:12;;;;;;;10.23;5.45;;;;;;;24.18;54.49;99163.09;4386972;32;33720;-90
2023/07/11 02:09:41;;;;;;;10.55;5.70;;;;;;;24.36;53.14;99158.78;4390065;32;33119;-86
2023/07/11 02:12:10;;;;;;;9.98;5.35;;;;;;;24.11;53.98;99165.16;4390495;32;33313;-86
2023/07/11 02:14:40;;;;;;;11.40;5.30;;;;;;;24.33;54.24;99159.78;4389375;32;34165;-89
2023/07/11 02:17:08;;;;;;;10.35;5.65;;;;;;;24.20;54.57;99164.72;4388760;32;34052;-86
2023/07/11 02:19:36;;;;;;;10.25;5.60;;;;;;;24.06;54.40;99164.50;4390848;32;33351;-86
2023/07/11 02:22:03;;;;;;;9.02;5.72;;;;;;;24.04;53.92;99166.31;4389955;32;33534;-86
2023/07/11 02:24:31;;;;;;;9.85;6.03;;;;;;;23.92;53.57;99158.91;4389660;32;34998;-88
2023/07/11 02:26:59;;;;;;;10.05;5.68;;;;;;;23.98;53.62;99159.50;4389020;32;34194;-87
2023/07/11 02:29:26;;;;;;;9.25;5.50;;;;;;;24.39;52.50;99156.88;4400807;32;33419;-91
2023/07/11 02:31:54;;;;;;;8.02;5.72;;;;;;;24.22;53.04;99154.09;4388670;32;34820;-91
2023/07/11 02:34:21;;;;;;;10.35;5.90;;;;;;;24.10;53.22;99151.97;4388933;32;33363;-90
2023/07/11 02:36:49;;;;;;;8.23;5.50;;;;;;;24.22;52.75;99151.44;4378433;32;34490;-86
2023/07/11 02:39:17;;;;;;;8.07;5.72;;;;;;;24.07;53.31;99152.09;4389763;32;33672;-92
2023/07/11 02:41:44;;;;;;;12.70;5.80;;;;;;;24.01;53.63;99153.22;4388601;32;33924;-89
2023/07/11 02:44:12;;;;;;;9.68;5.95;;;;;;;24.13;53.34;99158.00;4390089;32;33977;-92
2023/07/11 02:46:40;;;;;;;8.40;5.25;;;;;;;24.25;53.07;99161.91;4390307;32;33423;-90
2023/07/11 02:49:08;;;;;;;10.15;5.30;;;;;;;23.98;53.86;99156.88;4389974;32;34198;-89
2023/07/11 02:51:38;;;;;;;9.32;5.25;;;;;;;24.07;53.96;99152.97;4389636;32;34329;-88
2023/07/11 02:54:06;;;;;;;10.55;5.50;;;;;;;24.10;53.62;99159.94;4389799;32;35106;-90
2023/07/11 02:56:34;;;;;;;10.98;6.25;;;;;;;24.12;54.02;99161.56;4385985;32;32428;-91
2023/07/11 02:59:02;;;;;;;12.75;5.43;;;;;;;24.03;54.08;99160.16;4387587;32;33306;-87
2023/07/11 03:01:31;;;;;;;9.73;5.15;;;;;;;24.44;53.02;99167.31;4387751;32;33434;-89
2023/07/11 03:04:00;;;;;;;8.63;5.85;;;;;;;24.18;53.87;99157.81;4388766;32;33435;-88
2023/07/11 03:06:28;;;;;;;11.02;6.87;;;;;;;23.86;54.91;99161.78;4389081;32;33922;-90
2023/07/11 03:08:56;;;;;;;9.63;5.82;;;;;;;23.51;56.10;99161.41;4387912;32;32984;-92
2023/07/11 03:11:24;;;;;;;15.15;5.78;;;;;;;23.52;56.18;99169.31;4387815;32;33375;-90
2023/07/11 03:13:51;;;;;;;11.18;6.30;;;;;;;23.43;56.73;99182.03;4388340;32;33794;-89
2023/07/11 03:16:19;;;;;;;9.18;5.80;;;;;;;23.75;55.79;99170.19;4389469;32;33791;-87
2023/07/11 03:18:46;;;;;;;12.05;6.28;;;;;;;23.30;57.47;99179.88;4389397;32;33738;-89
2023/07/11 03:21:14;;;;;;;10.50;6.50;;;;;;;23.56;56.87;99183.25;4391177;32;34833;-91
2023/07/11 03:23:42;;;;;;;11.35;6.57;;;;;;;23.51;57.03;99180.81;4390437;32;34907;-86
2023/07/11 03:26:09;;;;;;;8.35;5.75;;;;;;;23.34;57.77;99182.41;4390697;32;34245;-85
2023/07/11 03:28:37;;;;;;;10.90;6.32;;;;;;;23.37;57.75;99183.13;4391345;32;34330;-87
2023/07/11 03:31:04;;;;;;;8.32;5.93;;;;;;;23.38;57.82;99190.16;4390817;32;34238;-87
2023/07/11 03:33:32;;;;;;;9.27;6.05;;;;;;;23.66;56.89;99167.88;4390897;32;34130;-89
2023/07/11 03:35:59;;;;;;;11.05;6.68;;;;;;;23.60;57.12;99179.59;4391141;32;34491;-91
2023/07/11 03:38:27;;;;;;;10.75;6.40;;;;;;;23.53;57.44;99175.47;4390876;32;34317;-87
2023/07/11 03:40:55;;;;;;;9.57;6.00;;;;;;;23.63;57.13;99182.09;4376606;32;33601;-88
2023/07/11 03:43:22;;;;;;;11.32;6.40;;;;;;;23.58;57.56;99180.56;4387644;32;34136;-87
2023/07/11 03:45:50;;;;;;;11.18;5.85;;;;;;;23.52;57.52;99176.38;4389282;32;33556;-83
2023/07/11 03:48:18;;;;;;;11.18;5.72;;;;;;;24.03;56.16;99178.72;4390651;32;33217;-92
2023/07/11 03:50:45;;;;;;;11.18;6.80;;;;;;;23.82;57.19;99184.03;4376949;32;33624;-91
2023/07/11 03:53:13;;;;;;;10.60;6.37;;;;;;;23.98;56.78;99180.69;4391111;32;34945;-88
2023/07/11 03:55:43;;;;;;;11.93;6.15;;;;;;;23.99;56.77;99186.84;4390039;32;33951;-91
2023/07/11 03:58:11;;;;;;;9.85;6.25;;;;;;;24.19;56.06;99189.50;4390718;32;34308;-91
2023/07/11 04:00:38;;;;;;;15.88;6.75;;;;;;;24.11;56.40;99183.69;4390836;32;33934;-88
2023/07/11 04:03:06;;;;;;;10.50;6.25;;;;;;;24.09;56.92;99177.56;4390143;32;33786;-91
2023/07/11 04:05:34;;;;;;;11.93;6.70;;;;;;;23.90;57.70;99189.88;4402024;32;33696;-87
2023/07/11 04:08:02;;;;;;;11.20;6.40;;;;;;;23.90;57.72;99188.06;4389904;32;32923;-93
2023/07/11 04:10:31;;;;;;;11.15;6.10;;;;;;;23.51;58.72;99191.38;4390484;32;34840;-86
2023/07/11 04:12:58;;;;;;;10.23;6.43;;;;;;;23.47;58.85;99200.37;4388916;32;33695;-90
2023/07/11 04:15:26;;;;;;;9.60;6.30;;;;;;;23.88;57.94;99189.94;4388930;32;34770;-90
2023/07/11 04:17:54;;;;;;;9.43;6.05;;;;;;;23.65;58.92;99201.44;4390343;32;33803;-86
2023/07/11 04:20:21;;;;;;;11.50;6.40;;;;;;;23.89;57.98;99199.59;4389881;32;33890;-92
2023/07/11 04:22:49;;;;;;;10.35;6.28;;;;;;;24.14;57.13;99207.41;4387852;32;35015;-90
2023/07/11 04:25:16;;;;;;;8.40;6.45;;;;;;;24.19;57.20;99210.69;4390384;32;33620;-86
2023/07/11 04:27:44;;;;;;;11.07;6.82;;;;;;;24.72;55.93;99202.25;4389360;32;33871;-85
2023/07/11 04:30:12;;;;;;;10.45;5.95;;;;;;;24.89;55.85;99201.50;4389458;32;34657;-88
2023/07/11 04:32:40;;;;;;;12.85;6.25;;;;;;;25.03;55.51;99205.31;4389237;32;33900;-89
2023/07/11 04:35:13;;;;;;;11.30;6.70;;;;;;;25.35;54.58;99206.53;4390126;32;33754;-86
2023/07/11 04:37:41;;;;;;;13.05;5.65;;;;;;;25.64;53.87;99213.06;4388593;32;33321;-86
2023/07/11 04:40:10;;;;;;;11.75;6.15;;;;;;;25.81;52.96;99207.00;4389628;32;33462;-90
2023/07/11 04:42:37;;;;;;;11.95;7.55;;;;;;;25.89;53.20;99210.13;4389676;32;34239;-86
2023/07/11 04:45:06;;;;;;;9.93;6.10;;;;;;;25.81;53.02;99221.13;4385625;32;34075;-89
2023/07/11 04:47:34;;;;;;;11.93;5.93;;;;;;;25.86;52.68;99203.16;4401768;32;32933;-92
2023/07/11 04:50:03;;;;;;;10.05;6.32;;;;;;;26.08;52.17;99204.75;4388558;32;33714;-88
2023/07/11 04:52:31;;;;;;;9.65;5.78;;;;;;;26.04;51.36;99197.88;4389695;32;34129;-85
2023/07/11 04:54:59;;;;;;;8.88;5.78;;;;;;;25.68;52.76;99204.91;4390154;32;34065;-86
2023/07/11 04:57:26;;;;;;;9.55;6.47;;;;;;;26.01;51.57;99208.66;4389776;32;33440;-91
2023/07/11 04:59:54;;;;;;;9.88;5.95;;;;;;;26.21;51.60;99205.84;4390055;32;33843;-89
2023/07/11 05:02:21;;;;;;;11.20;6.53;;;;;;;26.27;51.60;99208.22;4389543;32;33900;-89
2023/07/11 05:04:49;;;;;;;9.65;5.85;;;;;;;26.03;52.24;99206.81;4390973;32;33905;-90
2023/07/11 05:07:17;;;;;;;11.88;6.40;;;;;;;26.42;50.80;99209.22;4386950;32;34089;-91
2023/07/11 05:09:44;;;;;;;12.45;6.53;;;;;;;26.05;51.40;99211.09;4400632;32;34055;-84
2023/07/11 05:12:28;;;;;;;8.68;6.20;;;;;;;26.31;50.32;99199.13;4390088;32;34982;-86
2023/07/11 05:14:55;;;;;;;11.85;6.37;;;;;;;26.09;51.34;99210.00;4390025;32;34614;-88
2023/07/11 05:17:23;;;;;;;14.02;6.32;;;;;;;25.93;51.77;99209.03;4389786;32;34189;-85
2023/07/11 05:19:51;;;;;;;10.43;5.95;;;;;;;26.18;50.87;99206.03;4388080;32;33814;-91
2023/07/11 05:22:18;;;;;;;11.63;6.40;;;;;;;26.16;50.92;99202.56;4389581;32;34610;-92
2023/07/11 05:24:46;;;;;;;10.95;6.55;;;;;;;26.06;51.32;99207.47;4388711;32;33926;-85
2023/07/11 05:27:14;;;;;;;11.80;5.75;;;;;;;26.24;50.67;99205.69;4390486;32;33383;-86
2023/07/11 05:29:41;;;;;;;8.15;5.80;;;;;;;26.75;50.06;99208.44;4390801;32;34944;-86
2023/07/11 05:32:09;;;;;;;10.02;5.55;;;;;;;26.29;51.09;99205.47;4390451;32;33862;-85
2023/07/11 05:34:37;;;;;;;9.20;5.93;;;;;;;26.56;50.20;99220.03;4390817;32;33830;-84
2023/07/11 05:37:04;;;;;;;13.73;5.53;;;;;;;26.48;50.56;99208.94;4390564;32;33450;-86
2023/07/11 05:39:32;;;;;;;9.50;6.25;;;;;;;26.19;50.56;99219.22;4390987;32;34606;-88
2023/07/11 05:42:00;;;;;;;9.35;6.05;;;;;;;26.36;50.96;99210.38;4390400;32;33956;-94
2023/07/11 05:44:30;;;;;;;9.38;6.12;;;;;;;26.18;51.17;99212.19;4387266;32;34673;-86
2023/07/11 05:46:57;;;;;;;11.48;6.82;;;;;;;26.24;50.79;99218.13;4390803;32;33504;-86
2023/07/11 05:49:25;;;;;;;11.27;6.12;;;;;;;26.65;50.15;99222.22;4388807;32;33674;-84
2023/07/11 05:51:53;;;;;;;10.55;6.43;;;;;;;26.45;50.73;99225.03;4390683;32;34929;-94
2023/07/11 05:54:20;;;;;;;10.40;6.68;;;;;;;25.90;51.11;99225.97;4388754;32;33438;-89
2023/07/11 05:56:48;;;;;;;9.07;6.45;;;;;;;25.67;52.49;99232.38;4383853;32;34177;-95
2023/07/11 05:59:16;;;;;;;10.52;6.45;;;;;;;26.11;51.69;99233.84;4380465;32;34695;-87
2023/07/11 06:01:43;;;;;;;11.95;6.22;;;;;;;26.15;51.72;99233.59;4388258;32;34998;-90
2023/07/11 06:04:13;;;;;;;9.60;6.60;;;;;;;26.63;51.72;99239.19;4390920;32;34378;-89
2023/07/11 06:06:41;;;;;;;10.50;6.30;;;;;;;27.23;49.29;99246.69;4389153;32;34048;-89
2023/07/11 06:09:15;;;;;;;10.52;6.22;;;;;;;27.18;49.58;99241.63;4387191;32;32382;-91
2023/07/11 06:11:47;;;;;;;13.90;7.40;;;;;;;27.24;49.67;99235.09;4391076;32;34242;-86
2023/07/11 06:14:16;;;;;;;12.30;6.22;;;;;;;27.69;47.95;99238.81;4401828;32;33605;-86
2023/07/11 06:16:45;;;;;;;14.48;6.45;;;;;;;27.76;47.84;99242.88;4388903;32;33049;-86
2023/07/11 06:19:16;;;;;;;11.68;6.28;;;;;;;28.05;47.56;99242.09;4389526;32;34022;-90
2023/07/11 06:21:44;;;;;;;8.77;5.80;;;;;;;27.68;48.33;99240.63;4389916;32;34965;-86
2023/07/11 06:24:12;;;;;;;11.77;6.03;;;;;;;27.68;48.02;99253.09;4390678;32;33581;-85
2023/07/11 06:26:41;;;;;;;11.60;5.82;;;;;;;28.04;47.06;99248.38;4387925;32;33464;-86
2023/07/11 06:29:09;;;;;;;13.18;6.50;;;;;;;27.50;47.66;99255.81;4390040;32;33948;-86
2023/07/11 06:31:36;;;;;;;10.40;5.80;;;;;;;27.25;48.76;99252.81;4389885;32;33896;-84
2023/07/11 06:34:04;;;;;;;10.93;5.50;;;;;;;27.82;46.92;99253.19;4391525;32;33548;-89
2023/07/11 06:36:31;;;;;;;10.32;5.72;;;;;;;27.33;47.40;99250.56;4389557;32;33573;-86
2023/07/11 06:38:59;;;;;;;10.20;5.70;;;;;;;27.33;47.53;99247.91;4390152;32;33016;-94
2023/07/11 06:41:28;;;;;;;10.20;6.15;;;;;;;27.45;47.35;99244.56;4389220;32;33915;-88
2023/07/11 06:43:56;;;;;;;11.45;5.97;;;;;;;27.51;47.49;99246.91;4386736;32;34132;-84
2023/07/11 06:46:23;;;;;;;9.90;5.80;;;;;;;27.09;47.74;99239.44;4388021;32;32494;-96
2023/07/11 06:48:54;;;;;;;10.77;5.90;;;;;;;27.16;48.06;99246.16;4390612;32;34706;-85
2023/07/11 06:51:22;;;;;;;8.02;5.43;;;;;;;27.38;48.08;99249.38;4389133;32;34141;-93
2023/07/11 06:53:49;;;;;;;11.93;5.72;;;;;;;26.79;48.49;99253.41;4390936;32;34673;-87
2023/07/11 06:56:17;;;;;;;10.00;6.00;;;;;;;27.09;48.47;99258.91;4391670;32;34294;-88
2023/07/11 06:58:44;;;;;;;8.57;5.87;;;;;;;27.15;48.36;99244.44;4386060;32;34649;-85
2023/07/11 07:01:12;;;;;;;8.30;5.50;;;;;;;27.44;47.29;99242.84;4403529;32;34035;-91
2023/07/11 07:04:00;;;;;;;12.07;5.97;;;;;;;27.59;47.44;99242.00;4381999;32;33488;-85
2023/07/11 07:06:30;;;;;;;9.20;5.57;;;;;;;27.55;47.40;99244.94;4387660;32;33266;-91
2023/07/11 07:09:00;;;;;;;10.45;5.60;;;;;;;28.14;46.57;99241.53;4392087;32;33303;-86
2023/07/11 07:11:28;;;;;;;7.78;5.40;;;;;;;27.10;48.39;99249.97;4391847;32;34845;-87
2023/07/11 07:13:55;;;;;;;12.55;6.30;;;;;;;27.22;48.21;99252.97;4393296;32;34711;-89
2023/07/11 07:16:34;;;;;;;11.12;6.32;;;;;;;27.70;47.42;99256.53;4399753;32;34097;-84
2023/07/11 07:19:04;;;;;;;9.93;5.85;;;;;;;27.79;47.65;99253.37;4389691;32;34922;-87
2023/07/11 07:21:31;;;;;;;10.68;5.95;;;;;;;28.20;47.14;99248.34;4388305;32;33467;-93
2023/07/11 07:23:59;;;;;;;10.45;6.25;;;;;;;28.38;47.29;99256.25;4391739;32;34079;-85
2023/07/11 07:26:27;;;;;;;9.77;5.75;;;;;;;28.33;46.30;99261.78;4391340;32;34844;-88
2023/07/11 07:28:55;;;;;;;10.48;6.90;;;;;;;28.48;46.33;99252.06;4389865;32;33600;-85
2023/07/11 07:31:24;;;;;;;9.23;6.30;;;;;;;28.82;46.67;99246.41;4389339;32;34291;-85
2023/07/11 07:33:52;;;;;;;10.70;6.12;;;;;;;28.64;46.67;99252.00;4390342;32;34804;-86
2023/07/11 07:36:19;;;;;;;13.23;6.55;;;;;;;28.51;46.91;99247.41;4390357;32;33699;-84
2023/07/11 07:38:47;;;;;;;9.25;6.15;;;;;;;28.66;46.03;99252.78;4391430;32;33386;-85
2023/07/11 07:41:15;;;;;;;9.40;6.07;;;;;;;28.81;46.27;99249.19;4388426;32;34901;-89
2023/07/11 07:43:45;;;;;;;13.77;6.05;;;;;;;28.69;46.07;99244.59;4391260;32;34575;-85
2023/07/11 07:46:15;;;;;;;7.90;5.75;;;;;;;28.94;46.89;99251.94;4389967;32;33621;-87
2023/07/11 07:48:43;;;;;;;9.23;5.93;;;;;;;29.14;46.63;99250.78;4385793;32;34498;-86
2023/07/11 07:51:15;;;;;;;9.40;6.18;;;;;;;29.31;45.69;99247.88;4386817;32;34859;-85
2023/07/11 07:53:42;;;;;;;11.12;6.20;;;;;;;29.02;47.06;99253.25;4390811;32;33774;-84
2023/07/11 07:56:21;;;;;;;12.48;6.07;;;;;;;29.27;45.96;99257.03;4390244;32;33561;-86
2023/07/11 07:58:50;;;;;;;8.80;6.10;;;;;;;29.37;45.83;99257.34;4382933;32;33686;-84
2023/07/11 08:01:20;;;;;;;12.68;6.72;;;;;;;29.27;46.28;99257.03;4384756;32;34850;-83
2023/07/11 08:03:48;;;;;;;10.73;6.07;;;;;;;29.36;45.24;99251.12;4385700;32;34032;-85
2023/07/11 08:06:17;;;;;;;10.27;6.15;;;;;;;29.13;45.87;99249.88;4390332;32;33433;-86
2023/07/11 08:08:45;;;;;;;10.38;6.10;;;;;;;28.93;44.97;99259.09;4386044;32;34641;-83
2023/07/11 08:11:15;;;;;;;9.82;5.62;;;;;;;29.00;44.42;99255.13;4391206;32;34163;-83
2023/07/11 08:13:44;;;;;;;8.80;5.85;;;;;;;29.35;43.82;99260.09;4359736;32;33560;-85
2023/07/11 08:16:16;;;;;;;10.30;6.22;;;;;;;29.08;44.42;99258.19;4390710;32;34126;-85
2023/07/11 08:18:57;;;;;;;8.73;5.50;;;;;;;29.18;44.62;99260.31;4387338;32;33796;-84
2023/07/11 08:21:26;;;;;;;9.10;5.65;;;;;;;29.40;43.97;99259.78;4385943;32;33845;-86
2023/07/11 08:23:53;;;;;;;10.15;5.68;;;;;;;29.73;41.80;99259.47;4385491;32;34253;-85
2023/07/11 08:26:22;;;;;;;8.77;5.72;;;;;;;29.78;41.82;99263.59;4401230;32;35913;-90
2023/07/11 08:28:50;;;;;;;8.80;6.10;;;;;;;29.29;42.97;99256.00;4388527;32;34652;-86
2023/07/11 08:31:18;;;;;;;9.57;5.57;;;;;;;29.44;42.70;99262.19;4388726;32;33830;-85
2023/07/11 08:33:46;;;;;;;9.63;5.53;;;;;;;29.55;41.67;99267.72;4386090;32;33365;-89
2023/07/11 08:36:13;;;;;;;9.77;5.65;;;;;;;29.75;41.98;99262.94;4387863;32;34260;-87
2023/07/11 08:38:44;;;;;;;11.57;6.20;;;;;;;29.88;41.79;99260.31;4388623;32;34584;-83
2023/07/11 08:41:27;;;;;;;12.32;5.80;;;;;;;29.91;41.16;99263.63;4386873;32;34383;-86
2023/07/11 08:43:59;;;;;;;8.63;5.95;;;;;;;29.64;41.63;99252.94;4382377;32;33678;-84
2023/07/11 08:46:27;;;;;;;9.98;5.90;;;;;;;29.93;42.39;99264.41;4398947;32;33782;-88
2023/07/11 08:48:59;;;;;;;10.98;5.68;;;;;;;29.85;39.07;99263.19;4400452;32;33954;-86
2023/07/11 08:51:36;;;;;;;10.70;5.97;;;;;;;29.84;40.63;99261.47;4388125;32;34031;-88
2023/07/11 08:54:37;;;;;;;10.23;6.05;;;;;;;29.97;41.21;99260.56;4379594;32;33841;-85
2023/07/11 08:57:07;;;;;;;12.48;6.28;;;;;;;29.88;41.90;99258.47;4388289;32;33711;-86
2023/07/11 08:59:40;;;;;;;10.20;5.28;;;;;;;30.10;39.45;99263.28;4384894;32;35174;-81
2023/07/11 09:02:15;;;;;;;9.95;6.03;;;;;;;29.98;38.32;99264.97;4389075;32;34816;-84
2023/07/11 09:04:46;;;;;;;11.07;5.28;;;;;;;30.45;38.89;99268.13;4400058;32;34127;-87
2023/07/11 09:07:34;;;;;;;8.45;5.55;;;;;;;30.00;37.80;99273.75;4386556;32;33505;-87
2023/07/11 09:10:13;;;;;;;8.50;5.30;;;;;;;30.25;37.52;99267.66;4387614;32;33446;-87
2023/07/11 09:12:52;;;;;;;9.00;5.15;;;;;;;30.26;37.45;99263.16;4388435;32;33821;-90
2023/07/11 09:15:42;;;;;;;9.73;5.80;;;;;;;30.25;37.74;99267.66;4384397;32;33565;-89
2023/07/11 09:18:39;;;;;;;11.32;6.37;;;;;;;30.38;37.56;99275.69;4384394;32;33368;-86
2023/07/11 09:21:38;;;;;;;8.20;5.90;;;;;;;30.05;37.28;99271.63;4402463;32;33824;-87
2023/07/11 09:24:32;;;;;;;7.62;5.30;;;;;;;30.42;37.68;99265.66;4389685;32;34992;-86
2023/07/11 09:27:16;;;;;;;10.48;5.87;;;;;;;30.32;37.15;99268.09;4388046;32;34500;-86
2023/07/11 09:29:45;;;;;;;10.18;6.00;;;;;;;30.45;38.05;99263.63;4386511;32;34257;-95
2023/07/11 09:32:13;;;;;;;11.10;6.72;;;;;;;30.46;37.59;99261.84;4400512;32;33757;-89
2023/07/11 09:34:50;;;;;;;9.23;5.37;;;;;;;30.30;37.93;99264.66;4388617;32;34597;-85
2023/07/11 09:37:41;;;;;;;11.63;5.87;;;;;;;30.25;37.76;99262.31;4388704;32;33959;-88
2023/07/11 09:40:19;;;;;;;10.05;4.78;;;;;;;29.82;37.39;99264.25;4389309;32;32936;-91
2023/07/11 09:42:50;;;;;;;11.40;6.07;;;;;;;30.39;37.24;99260.53;4385098;32;32401;-90
2023/07/11 09:45:20;;;;;;;9.02;5.25;;;;;;;30.32;37.25;99262.75;4386959;32;33941;-85
2023/07/11 09:48:04;;;;;;;10.57;6.47;;;;;;;30.78;36.71;99257.81;4388801;32;34887;-84
2023/07/11 09:50:50;;;;;;;8.32;5.60;;;;;;;30.37;35.06;99252.59;4396236;32;33032;-87
2023/07/11 09:53:43;;;;;;;10.00;6.85;;;;;;;30.14;35.71;99245.22;4386498;32;33995;-86
2023/07/11 09:56:14;;;;;;;8.75;5.72;;;;;;;30.22;36.81;99245.59;4388461;32;34161;-82
2023/07/11 09:58:48;;;;;;;8.57;5.20;;;;;;;30.31;35.76;99250.34;4388804;32;34791;-88
2023/07/11 10:01:23;;;;;;;11.32;6.10;;;;;;;30.93;35.79;99244.34;4388717;32;32996;-84
2023/07/11 10:03:57;;;;;;;10.93;6.25;;;;;;;30.74;35.82;99250.12;4400257;32;33369;-91
2023/07/11 10:06:29;;;;;;;10.48;6.18;;;;;;;31.26;35.26;99249.16;4387254;32;33934;-91
2023/07/11 10:09:23;;;;;;;10.48;5.35;;;;;;;30.98;34.95;99251.06;4390151;32;34280;-86
2023/07/11 10:11:58;;;;;;;9.15;6.30;;;;;;;30.73;36.36;99243.88;4381542;32;33634;-87
2023/07/11 10:14:31;;;;;;;9.13;5.93;;;;;;;30.90;35.87;99252.59;4401793;32;33639;-92
2023/07/11 10:17:03;;;;;;;10.23;5.47;;;;;;;30.91;36.44;99248.94;4399905;32;34116;-81
2023/07/11 10:19:30;;;;;;;12.18;6.60;;;;;;;31.17;36.76;99252.47;4405714;32;34768;-84
2023/07/11 10:21:59;;;;;;;12.02;6.18;;;;;;;30.95;36.24;99251.31;4397568;32;34456;-88
2023/07/11 10:24:34;;;;;;;11.40;6.28;;;;;;;30.92;36.27;99246.16;4388974;32;34620;-88
2023/07/11 10:27:06;;;;;;;10.38;6.20;;;;;;;30.80;36.19;99249.72;4388366;32;33812;-83
2023/07/11 10:29:42;;;;;;;9.05;6.10;;;;;;;31.07;36.77;99249.59;4399860;32;34071;-82
2023/07/11 10:32:17;;;;;;;8.07;5.85;;;;;;;30.68;36.46;99242.47;4396729;32;33402;-82
2023/07/11 10:34:47;;;;;;;;;;;;;;;30.95;37.02;99256.66;4388900;32;34653;-84
2023/07/11 10:37:33;;;;;;;11.90;6.43;;;;;;;31.44;34.54;99250.53;4404385;32;35238;-82
2023/07/11 10:40:17;;;;;;;10.40;6.32;;;;;;;31.58;34.79;99248.66;4390582;32;34483;-84
2023/07/11 10:42:50;;;;;;;9.15;5.85;;;;;;;31.71;33.79;99246.81;4387442;32;34678;-82
2023/07/11 10:45:26;;;;;;;11.43;6.07;;;;;;;31.60;35.88;99250.28;4388973;32;33163;-83
2023/07/11 10:48:06;;;;;;;11.27;6.28;;;;;;;31.52;34.36;99249.09;4400914;32;34629;-82
2023/07/11 10:50:43;;;;;;;10.35;6.40;;;;;;;31.51;35.97;99248.25;4354750;32;1495021;-82
2023/07/11 10:53:20;;;;;;;9.35;5.80;;;;;;;31.32;34.64;99240.69;4388504;32;33541;-81
2023/07/11 10:55:52;;;;;;;11.12;6.32;;;;;;;31.35;35.77;99253.87;4388396;32;33614;-83
2023/07/11 10:58:23;;;;;;;12.00;6.72;;;;;;;31.40;35.24;99240.97;4388720;32;34339;-82
2023/07/11 11:01:15;;;;;;;11.90;7.00;;;;;;;31.57;34.66;99242.47;4387068;32;35022;-84
2023/07/11 11:03:46;;;;;;;10.60;6.40;;;;;;;31.81;36.04;99239.78;4385653;32;34546;-83
2023/07/11 11:06:44;;;;;;;9.75;6.45;;;;;;;32.05;36.14;99230.94;4388007;32;33794;-83
2023/07/11 11:09:21;;;;;;;12.80;6.55;;;;;;;31.97;35.27;99235.06;4388018;32;33963;-83
2023/07/11 11:11:58;;;;;;;13.18;6.45;;;;;;;31.78;34.54;99234.66;4388131;32;34598;-81
2023/07/11 11:14:44;;;;;;;11.40;6.75;;;;;;;31.93;34.37;99217.47;4375432;32;33909;-81
2023/07/11 11:17:21;;;;;;;11.75;6.55;;;;;;;31.65;34.84;99223.13;4376180;32;33955;-81
2023/07/11 11:20:05;;;;;;;10.00;6.80;;;;;;;31.45;35.51;99220.09;4387863;32;34180;-83
2023/07/11 11:22:41;;;;;;;9.48;6.55;;;;;;;31.87;34.34;99212.56;4388237;32;34566;-83
2023/07/11 11:25:16;;;;;;;13.38;7.05;;;;;;;31.86;34.27;99216.25;4375983;32;33065;-83
2023/07/11 11:28:03;;;;;;;9.57;6.50;;;;;;;31.52;35.88;99214.28;4399901;32;33819;-82
2023/07/11 11:30:36;;;;;;;12.50;6.85;;;;;;;31.66;35.70;99214.97;4386746;32;34029;-82
2023/07/11 11:33:23;;;;;;;11.05;6.10;;;;;;;32.01;34.50;99210.66;4387764;32;32489;-84
2023/07/11 11:35:53;;;;;;;15.20;7.15;;;;;;;31.74;35.79;99223.31;4388343;32;32925;-84
2023/07/11 11:38:57;;;;;;;10.77;7.07;;;;;;;31.60;34.86;99218.13;4388955;32;34304;-81
2023/07/11 11:41:39;;;;;;;9.95;6.62;;;;;;;30.97;36.20;99211.88;4390361;32;33978;-81
2023/07/11 11:44:23;;;;;;;9.40;6.70;;;;;;;31.60;36.73;99206.56;4388549;32;33751;-81
2023/07/11 11:46:53;;;;;;;11.32;6.40;;;;;;;31.70;35.47;99199.53;4399722;32;34164;-82
2023/07/11 11:49:25;;;;;;;16.33;7.30;;;;;;;32.06;35.38;99197.78;4391292;32;33539;-83